Aviation Digital Data Service (ADDS)

Output produced by METARs form (1005 UTC 19 January 2019)
found at http://www.aviationweather.gov/metar/data/
 
METAR text: GCTS 191000Z 06012KT 010V090 9999 FEW035 19/10 Q1028 NOSIG
Conditions at: GCTS (TENERIFE SUR/REI, ES) observed 1000 UTC 19 January 2019
Temperature: 19.0°C (66°F)
Dewpoint: 10.0°C (50°F) [RH = 56%]
Pressure (altimeter): 30.35 inches Hg (1028.0 mb)
Winds: from the ENE (60 degrees) at 14 MPH (12 knots; 6.2 m/s)
Visibility: 6 or more miles (10+ km)
Ceiling: at least 12,000 feet AGL
Clouds: few clouds at 3500 feet AGL
Weather: no significant weather observed at this time

METAR text: GCTS 190930Z 05009KT 360V070 9999 FEW035 18/09 Q1027 NOSIG
Conditions at: GCTS (TENERIFE SUR/REI, ES) observed 0930 UTC 19 January 2019
Temperature: 18.0°C (64°F)
Dewpoint: 9.0°C (48°F) [RH = 56%]
Pressure (altimeter): 30.32 inches Hg (1027.0 mb)
Winds: from the NE (50 degrees) at 10 MPH (9 knots; 4.6 m/s)
Visibility: 6 or more miles (10+ km)
Ceiling: at least 12,000 feet AGL
Clouds: few clouds at 3500 feet AGL
Weather: no significant weather observed at this time

METAR text: GCTS 190900Z 05007KT 9999 BKN035 17/11 Q1027 NOSIG
Conditions at: GCTS (TENERIFE SUR/REI, ES) observed 0900 UTC 19 January 2019
Temperature: 17.0°C (63°F)
Dewpoint: 11.0°C (52°F) [RH = 68%]
Pressure (altimeter): 30.32 inches Hg (1027.0 mb)
Winds: from the NE (50 degrees) at 8 MPH (7 knots; 3.6 m/s)
Visibility: 6 or more miles (10+ km)
Ceiling: 3500 feet AGL
Clouds: broken clouds at 3500 feet AGL
Weather: no significant weather observed at this time

METAR text: GCTS 190830Z 06008KT 9999 BKN036 17/09 Q1027 NOSIG
Conditions at: GCTS (TENERIFE SUR/REI, ES) observed 0830 UTC 19 January 2019
Temperature: 17.0°C (63°F)
Dewpoint: 9.0°C (48°F) [RH = 59%]
Pressure (altimeter): 30.32 inches Hg (1027.0 mb)
Winds: from the ENE (60 degrees) at 9 MPH (8 knots; 4.1 m/s)
Visibility: 6 or more miles (10+ km)
Ceiling: 3600 feet AGL
Clouds: broken clouds at 3600 feet AGL
Weather: no significant weather observed at this time

Forecast for: GCTS (TENERIFE SUR/REI, ES)
Text: TAF GCTS 190800Z 1909/2009 05005KT 9999 SCT035 TX22/1914Z TN13/2006Z
Forecast period: 0900 to 1000 UTC 19 January 2019
Forecast type: FROM: standard forecast or significant change
Winds: from the NE (50 degrees) at 6 MPH (5 knots; 2.6 m/s)
Visibility: 6 or more miles 10+ km)
Ceiling: at least 12,000 feet AGL
Clouds: scattered clouds at 3500 feet AGL
Weather: no significant weather forecast for this period
Text: BECMG 1910/1912 08015KT
Forecast period: 1000 to 2000 UTC 19 January 2019
Forecast type: BECOMING: Conditions expected to become as follows by 1200 UTC 19 January 2019
Winds: from the E (80 degrees) at 17 MPH (15 knots; 7.7 m/s)
Visibility: 6 or more miles 10+ km)
Ceiling: at least 12,000 feet AGL
Clouds: scattered clouds at 3500 feet AGL
Weather: no significant weather forecast for this period
Text: BECMG 1920/1922 04005KT
Forecast period: 2000 UTC 19 January 2019 to 0900 UTC 20 January 2019
Forecast type: BECOMING: Conditions expected to become as follows by 2200 UTC 19 January 2019
Winds: from the NE (40 degrees) at 6 MPH (5 knots; 2.6 m/s)
Visibility: 6 or more miles 10+ km)
Ceiling: at least 12,000 feet AGL
Clouds: scattered clouds at 3500 feet AGL
Weather: no significant weather forecast for this period